createdAt,value
2022-11-22T00:01:49.863Z,8.17
2022-11-22T00:04:35.596Z,7.90
2022-11-22T00:07:21.364Z,7.80
2022-11-22T00:10:09.159Z,7.43
2022-11-22T00:12:54.975Z,8.73
2022-11-22T00:15:42.367Z,8.57
2022-11-22T00:18:31.360Z,10.07
2022-11-22T00:21:19.747Z,7.47
2022-11-22T00:24:05.345Z,9.50
2022-11-22T00:26:50.838Z,8.43
2022-11-22T00:29:36.244Z,7.80
2022-11-22T00:32:21.829Z,8.17
2022-11-22T00:35:07.729Z,8.63
2022-11-22T00:37:53.343Z,8.30
2022-11-22T00:40:38.684Z,7.87
2022-11-22T00:43:24.452Z,7.90
2022-11-22T00:46:12.291Z,7.93
2022-11-22T00:48:59.657Z,8.27
2022-11-22T00:51:47.063Z,8.30
2022-11-22T00:54:32.210Z,8.77
2022-11-22T00:57:20.386Z,7.27
2022-11-22T01:00:07.252Z,9.20
2022-11-22T01:02:55.428Z,8.47
2022-11-22T01:05:43.886Z,8.37
2022-11-22T01:08:29.217Z,8.77
2022-11-22T01:11:17.858Z,8.50
2022-11-22T01:14:03.740Z,10.23
2022-11-22T01:16:49.613Z,7.43
2022-11-22T01:19:35.058Z,8.33
2022-11-22T01:22:20.926Z,7.00
2022-11-22T01:25:09.610Z,9.37
2022-11-22T01:27:57.055Z,7.20
2022-11-22T01:30:45.482Z,8.10
2022-11-22T01:33:31.005Z,8.10
2022-11-22T01:36:16.646Z,8.53
2022-11-22T01:39:02.153Z,8.17
2022-11-22T01:41:47.678Z,7.13
2022-11-22T01:44:36.037Z,9.00
2022-11-22T01:47:25.232Z,7.80
2022-11-22T01:50:15.750Z,9.13
2022-11-22T01:53:07.068Z,8.13
2022-11-22T01:55:53.582Z,8.33
2022-11-22T01:58:41.658Z,8.90
2022-11-22T02:01:28.613Z,7.60
2022-11-22T02:04:21.874Z,8.60
2022-11-22T02:07:29.351Z,7.77
2022-11-22T02:10:21.344Z,8.17
2022-11-22T02:13:08.003Z,8.50
2022-11-22T02:15:54.399Z,8.50
2022-11-22T02:18:39.985Z,8.40
2022-11-22T02:21:25.210Z,7.70
2022-11-22T02:24:25.764Z,8.53
2022-11-22T02:27:11.278Z,8.00
2022-11-22T02:29:56.702Z,8.57
2022-11-22T02:32:41.921Z,7.57
2022-11-22T02:35:29.069Z,7.70
2022-11-22T02:38:21.837Z,7.60
2022-11-22T02:41:13.142Z,8.60
2022-11-22T02:43:58.486Z,8.00
2022-11-22T02:46:55.120Z,8.17
2022-11-22T02:49:40.415Z,9.27
2022-11-22T02:52:25.819Z,8.10
2022-11-22T02:55:13.930Z,8.40
2022-11-22T02:57:59.128Z,9.27
2022-11-22T03:00:44.623Z,8.40
2022-11-22T03:03:33.435Z,8.07
2022-11-22T03:06:18.763Z,8.83
2022-11-22T03:09:04.217Z,8.50
2022-11-22T03:11:53.739Z,8.47
2022-11-22T03:14:38.874Z,7.30
2022-11-22T03:17:24.613Z,9.17
2022-11-22T03:20:10.153Z,7.67
2022-11-22T03:22:55.965Z,7.83
2022-11-22T03:25:41.997Z,8.00
2022-11-22T03:28:27.194Z,9.17
2022-11-22T03:31:12.472Z,8.70
2022-11-22T03:34:01.749Z,7.30
2022-11-22T03:36:46.875Z,8.40
2022-11-22T03:39:32.471Z,7.80
2022-11-22T03:42:21.830Z,10.00
2022-11-22T03:45:07.958Z,8.00
2022-11-22T03:47:53.922Z,7.73
2022-11-22T03:50:39.533Z,8.67
2022-11-22T03:53:24.986Z,7.33
2022-11-22T03:56:10.690Z,7.70
2022-11-22T03:58:56.039Z,8.40
2022-11-22T04:01:43.826Z,8.57
2022-11-22T04:04:32.592Z,7.77
2022-11-22T04:07:18.039Z,9.20
2022-11-22T04:10:04.478Z,7.63
2022-11-22T04:12:52.524Z,9.50
2022-11-22T04:15:37.957Z,8.40
2022-11-22T04:18:23.096Z,8.50
2022-11-22T04:21:26.933Z,7.93
2022-11-22T04:24:31.124Z,8.90
2022-11-22T04:27:16.420Z,8.37
2022-11-22T04:30:02.644Z,9.17
2022-11-22T04:32:52.364Z,9.13
2022-11-22T04:35:41.047Z,10.00
2022-11-22T04:38:26.778Z,8.40
2022-11-22T04:41:14.683Z,8.63
2022-11-22T04:44:19.142Z,8.93
2022-11-22T04:47:04.680Z,10.37
2022-11-22T04:49:50.556Z,8.70
2022-11-22T04:52:54.404Z,10.00
2022-11-22T04:55:39.955Z,9.87
2022-11-22T04:58:25.181Z,9.50
2022-11-22T05:01:11.061Z,9.40
2022-11-22T05:03:57.157Z,10.13
2022-11-22T05:06:43.254Z,8.50
2022-11-22T05:09:31.152Z,9.30
2022-11-22T05:12:19.530Z,10.13
2022-11-22T05:15:06.146Z,10.30
2022-11-22T05:17:51.878Z,10.10
2022-11-22T05:20:37.976Z,11.43
2022-11-22T05:23:42.886Z,10.30
2022-11-22T05:26:36.266Z,9.77
2022-11-22T05:29:21.611Z,9.70
2022-11-22T05:32:06.909Z,9.03
2022-11-22T05:34:54.498Z,9.40
2022-11-22T05:37:39.985Z,9.53
2022-11-22T05:40:26.281Z,10.63
2022-11-22T05:43:11.808Z,8.63
2022-11-22T05:46:04.275Z,10.47
2022-11-22T05:48:51.885Z,9.83
2022-11-22T05:51:37.089Z,8.30
2022-11-22T05:54:22.546Z,10.30
2022-11-22T05:57:08.026Z,9.00
2022-11-22T05:59:54.458Z,9.20
2022-11-22T06:02:40.029Z,10.07
2022-11-22T06:05:25.377Z,9.47
2022-11-22T06:08:11.914Z,9.50
2022-11-22T06:11:08.596Z,10.70
2022-11-22T06:13:57.220Z,10.27
2022-11-22T06:16:45.224Z,9.20
2022-11-22T06:19:30.526Z,9.53
2022-11-22T06:22:16.038Z,8.17
2022-11-22T06:25:01.301Z,10.73
2022-11-22T06:27:49.175Z,10.73
2022-11-22T06:30:36.532Z,10.30
2022-11-22T06:33:21.880Z,10.43
2022-11-22T06:36:15.591Z,9.30
2022-11-22T06:39:03.529Z,8.20
2022-11-22T06:41:49.225Z,9.03
2022-11-22T06:44:34.790Z,8.90
2022-11-22T06:47:22.392Z,8.43
2022-11-22T06:50:08.237Z,8.70
2022-11-22T06:52:56.188Z,8.87
2022-11-22T06:55:50.429Z,10.83
2022-11-22T06:58:37.322Z,9.60
2022-11-22T07:01:28.291Z,9.43
2022-11-22T07:04:14.591Z,9.87
2022-11-22T07:06:59.905Z,9.20
2022-11-22T07:09:45.418Z,8.90
2022-11-22T07:12:31.142Z,8.60
2022-11-22T07:15:18.789Z,9.87
2022-11-22T07:18:04.162Z,9.60
2022-11-22T07:20:50.240Z,8.50
2022-11-22T07:23:35.938Z,8.97
2022-11-22T07:26:23.647Z,10.57
2022-11-22T07:29:09.380Z,9.20
2022-11-22T07:31:55.939Z,9.77
2022-11-22T07:34:43.523Z,9.13
2022-11-22T07:37:32.226Z,9.93
2022-11-22T07:40:19.845Z,9.63
2022-11-22T07:43:07.325Z,8.97
2022-11-22T07:45:52.556Z,9.40
2022-11-22T07:48:38.431Z,10.10
2022-11-22T07:51:23.997Z,8.27
2022-11-22T07:54:13.204Z,8.90
2022-11-22T07:56:58.883Z,9.40
2022-11-22T07:59:44.272Z,8.20
2022-11-22T08:02:29.795Z,9.70
2022-11-22T08:05:16.177Z,9.77
2022-11-22T08:08:01.357Z,10.10
2022-11-22T08:10:46.813Z,9.97
2022-11-22T08:13:32.978Z,10.70
2022-11-22T08:16:18.788Z,10.30
2022-11-22T08:19:05.081Z,10.33
2022-11-22T08:21:54.016Z,10.47
2022-11-22T08:24:45.703Z,8.83
2022-11-22T08:27:33.054Z,10.30
2022-11-22T08:30:20.954Z,9.53
2022-11-22T08:33:06.586Z,10.33
2022-11-22T08:35:51.938Z,8.70
2022-11-22T08:38:37.447Z,9.60
2022-11-22T08:41:23.119Z,9.07
2022-11-22T08:44:10.709Z,8.87
2022-11-22T08:46:56.505Z,9.63
2022-11-22T08:49:41.800Z,10.70
2022-11-22T08:52:27.223Z,9.50
2022-11-22T08:55:14.786Z,10.70
2022-11-22T08:58:02.656Z,11.13
2022-11-22T09:00:48.175Z,10.20
2022-11-22T09:03:37.545Z,9.77
2022-11-22T09:09:43.945Z,9.57
2022-11-22T09:12:29.747Z,11.10
2022-11-22T09:15:17.467Z,10.40
2022-11-22T09:18:04.278Z,10.77
2022-11-22T09:20:49.550Z,9.73
2022-11-22T09:23:36.111Z,11.17
2022-11-22T09:26:25.228Z,11.43
2022-11-22T09:29:10.960Z,11.67
2022-11-22T09:31:57.243Z,9.93
2022-11-22T09:34:42.725Z,10.60
2022-11-22T09:37:28.406Z,10.17
2022-11-22T09:40:15.200Z,11.90
2022-11-22T09:43:12.369Z,12.00
2022-11-22T09:46:09.026Z,11.77
2022-11-22T09:49:15.469Z,11.33
2022-11-22T09:52:17.282Z,11.03
2022-11-22T09:55:18.818Z,11.80
2022-11-22T09:58:30.653Z,10.43
2022-11-22T10:01:22.070Z,10.73
2022-11-22T10:04:10.427Z,12.80
2022-11-22T10:07:19.737Z,11.87
2022-11-22T10:10:12.001Z,12.23
2022-11-22T10:13:02.064Z,10.10
2022-11-22T10:16:10.713Z,10.80
2022-11-22T10:19:13.188Z,11.20
2022-11-22T10:21:58.431Z,9.70
2022-11-22T10:24:43.883Z,11.37
2022-11-22T10:27:34.872Z,9.70
2022-11-22T10:30:21.825Z,12.10
2022-11-22T10:33:27.960Z,12.17
2022-11-22T10:36:28.075Z,10.97
2022-11-22T10:39:51.101Z,9.80
2022-11-22T10:43:02.198Z,11.80
2022-11-22T10:45:54.775Z,12.40
2022-11-22T10:48:55.629Z,12.87
2022-11-22T10:52:00.712Z,11.33
2022-11-22T10:55:04.518Z,10.90
2022-11-22T10:57:58.750Z,10.87
2022-11-22T11:00:56.612Z,11.63
2022-11-22T11:03:46.199Z,10.90
2022-11-22T11:10:10.781Z,11.50
2022-11-22T11:13:01.879Z,11.00
2022-11-22T11:15:56.432Z,11.03
2022-11-22T11:18:56.339Z,10.63
2022-11-22T11:21:41.675Z,11.60
2022-11-22T11:24:30.672Z,10.17
2022-11-22T11:27:19.398Z,13.50
2022-11-22T11:30:05.395Z,11.97
2022-11-22T11:32:56.362Z,12.80
2022-11-22T11:35:47.164Z,12.07
2022-11-22T11:38:44.746Z,11.13
2022-11-22T11:41:38.879Z,11.10
2022-11-22T11:44:31.869Z,12.17
2022-11-22T11:47:35.912Z,11.60
2022-11-22T11:50:24.878Z,12.00
2022-11-22T11:53:25.620Z,11.80
2022-11-22T11:56:32.059Z,11.13
2022-11-22T11:59:20.088Z,12.37
2022-11-22T12:02:19.603Z,11.80
2022-11-22T12:05:15.161Z,11.10
2022-11-22T12:08:03.777Z,11.60
2022-11-22T12:10:57.961Z,11.23
2022-11-22T12:17:05.666Z,12.27
2022-11-22T12:20:32.164Z,12.47
2022-11-22T12:23:28.514Z,10.93
2022-11-22T12:26:15.324Z,13.00
2022-11-22T12:29:01.064Z,10.07
2022-11-22T12:32:07.155Z,10.10
2022-11-22T12:35:02.172Z,9.83
2022-11-22T12:38:10.945Z,10.60
2022-11-22T12:41:03.032Z,12.23
2022-11-22T12:44:10.271Z,12.17
2022-11-22T12:47:06.341Z,11.10
2022-11-22T12:50:09.248Z,12.23
2022-11-22T12:52:58.190Z,11.00
2022-11-22T12:55:51.805Z,12.60
2022-11-22T12:58:43.611Z,10.73
2022-11-22T13:01:44.295Z,12.53
2022-11-22T13:04:50.749Z,10.83
2022-11-22T13:07:36.625Z,12.10
2022-11-22T13:10:44.918Z,10.97
2022-11-22T13:13:47.856Z,11.93
2022-11-22T13:16:34.515Z,10.70
2022-11-22T13:19:22.880Z,11.60
2022-11-22T13:22:44.768Z,10.00
2022-11-22T13:25:43.171Z,11.40
2022-11-22T13:28:32.922Z,10.00
2022-11-22T13:31:20.295Z,11.43
2022-11-22T13:34:27.021Z,11.30
2022-11-22T13:37:16.322Z,10.03
2022-11-22T13:40:47.635Z,10.40
2022-11-22T13:43:54.710Z,12.53
2022-11-22T13:47:00.585Z,12.67
2022-11-22T13:49:49.145Z,10.87
2022-11-22T13:52:53.715Z,11.20
2022-11-22T13:55:42.261Z,10.30
2022-11-22T13:58:29.109Z,10.97
2022-11-22T14:01:36.482Z,10.97
2022-11-22T14:04:27.428Z,10.60
2022-11-22T14:07:22.571Z,9.77
2022-11-22T14:10:34.559Z,10.87
2022-11-22T14:13:52.846Z,12.03
2022-11-22T14:17:11.344Z,10.47
2022-11-22T14:20:33.501Z,10.77
2022-11-22T14:24:02.972Z,9.97
2022-11-22T14:27:08.184Z,10.93
2022-11-22T14:30:08.097Z,9.93
2022-11-22T14:32:59.305Z,11.70
2022-11-22T14:36:06.629Z,10.57
2022-11-22T14:38:51.909Z,11.50
2022-11-22T14:41:37.501Z,11.03
2022-11-22T14:44:31.410Z,11.27
2022-11-22T14:47:20.344Z,11.27
2022-11-22T14:50:35.985Z,10.00
2022-11-22T14:53:30.977Z,11.60
2022-11-22T14:56:18.370Z,10.63
2022-11-22T14:59:36.402Z,11.40
2022-11-22T15:03:06.171Z,9.70
2022-11-22T15:09:23.395Z,10.40
2022-11-22T15:09:50.942Z,11.00
2022-11-22T15:13:09.821Z,12.23
2022-11-22T15:57:35.443Z,10.40
2022-11-22T16:00:27.606Z,10.77
2022-11-22T16:03:24.612Z,11.37
2022-11-22T16:06:18.810Z,11.93
2022-11-22T16:09:06.242Z,12.03
2022-11-22T16:12:01.926Z,10.77
2022-11-22T16:14:51.415Z,12.73
2022-11-22T16:17:39.046Z,12.33
2022-11-22T16:20:32.773Z,11.83
2022-11-22T16:23:28.141Z,12.50
2022-11-22T16:26:26.214Z,11.80
2022-11-22T16:29:29.292Z,13.13
2022-11-22T16:32:17.747Z,12.33
2022-11-22T16:35:28.102Z,11.70
2022-11-22T16:38:09.812Z,11.73
2022-11-22T16:40:57.955Z,11.73
2022-11-22T16:43:43.609Z,13.03
2022-11-22T16:46:30.183Z,12.67
2022-11-22T16:49:21.094Z,10.60
2022-11-22T16:52:12.134Z,12.27
2022-11-22T16:55:00.906Z,13.37
2022-11-22T16:57:46.895Z,10.70
2022-11-22T17:00:37.917Z,11.30
2022-11-22T17:03:27.344Z,11.37
2022-11-22T17:06:19.043Z,11.87
2022-11-22T17:09:07.588Z,11.20
2022-11-22T17:11:53.656Z,13.40
2022-11-22T17:14:39.237Z,13.50
2022-11-22T17:17:24.737Z,12.30
2022-11-22T17:20:10.532Z,13.80
2022-11-22T17:22:56.685Z,11.60
2022-11-22T17:25:42.503Z,12.37
2022-11-22T17:28:30.429Z,12.03
2022-11-22T17:31:18.235Z,11.53
2022-11-22T17:34:04.336Z,11.90
2022-11-22T17:36:49.994Z,13.57
2022-11-22T17:39:35.825Z,11.90
2022-11-22T17:42:24.376Z,12.30
2022-11-22T17:45:10.028Z,11.10
2022-11-22T17:47:55.947Z,11.77
2022-11-22T17:50:41.965Z,12.13
2022-11-22T17:53:27.565Z,12.83
2022-11-22T17:56:13.252Z,12.30
2022-11-22T17:58:58.478Z,12.97
2022-11-22T18:01:43.779Z,13.77
2022-11-22T18:04:29.617Z,13.70
2022-11-22T18:07:15.860Z,12.07
2022-11-22T18:10:02.428Z,13.83
2022-11-22T18:13:13.655Z,12.67
2022-11-22T18:16:02.936Z,11.50
2022-11-22T18:18:58.644Z,12.20
2022-11-22T18:21:47.179Z,12.23
2022-11-22T18:24:32.872Z,10.67
2022-11-22T18:27:20.821Z,13.20
2022-11-22T18:30:06.702Z,12.23
2022-11-22T18:32:52.610Z,12.97
2022-11-22T18:35:39.197Z,11.13
2022-11-22T18:38:26.832Z,13.30
2022-11-22T18:41:16.718Z,12.47
2022-11-22T18:44:07.025Z,11.27
2022-11-22T18:46:54.559Z,10.93
2022-11-22T18:49:40.604Z,11.43
2022-11-22T18:52:26.693Z,10.37
2022-11-22T18:55:15.773Z,12.60
2022-11-22T18:58:02.202Z,11.90
2022-11-22T19:00:51.636Z,11.97
2022-11-22T19:03:38.690Z,12.70
2022-11-22T19:06:24.538Z,12.13
2022-11-22T19:09:11.401Z,12.37
2022-11-22T19:11:58.391Z,12.37
2022-11-22T19:14:44.633Z,11.90
2022-11-22T19:17:30.034Z,12.57
2022-11-22T19:20:47.263Z,12.50
2022-11-22T19:23:23.005Z,13.80
2022-11-22T19:26:14.340Z,11.27
2022-11-22T19:29:00.287Z,12.30
2022-11-22T19:31:47.323Z,13.57
2022-11-22T19:34:33.390Z,11.23
2022-11-22T19:37:19.064Z,12.17
2022-11-22T19:40:05.028Z,11.43
2022-11-22T19:42:50.994Z,12.13
2022-11-22T19:45:37.190Z,12.50
2022-11-22T19:48:22.956Z,13.60
2022-11-22T19:51:15.690Z,11.27
2022-11-22T19:54:02.701Z,10.20
2022-11-22T19:56:50.498Z,12.87
2022-11-22T19:59:37.156Z,13.90
2022-11-22T20:02:25.606Z,14.23
2022-11-22T20:05:14.024Z,13.23
2022-11-22T20:07:59.831Z,12.73
2022-11-22T20:10:45.422Z,13.17
2022-11-22T20:13:36.151Z,11.43
2022-11-22T20:16:27.014Z,12.97
2022-11-22T20:19:12.783Z,13.17
2022-11-22T20:22:03.027Z,11.90
2022-11-22T20:24:48.384Z,11.70
2022-11-22T20:27:33.865Z,12.53
2022-11-22T20:30:19.728Z,11.57
2022-11-22T20:33:05.950Z,13.37
2022-11-22T20:35:53.495Z,12.43
2022-11-22T20:38:41.459Z,12.70
2022-11-22T20:41:30.625Z,11.57
2022-11-22T20:44:18.205Z,12.43
2022-11-22T20:47:05.917Z,12.80
2022-11-22T20:49:55.438Z,12.93
2022-11-22T20:52:41.469Z,12.50
2022-11-22T20:55:26.684Z,11.73
2022-11-22T20:58:14.936Z,12.00
2022-11-22T21:01:06.568Z,12.67
2022-11-22T21:03:56.571Z,13.27
2022-11-22T21:06:41.864Z,11.77
2022-11-22T21:09:30.170Z,13.10
2022-11-22T21:12:19.203Z,10.97
2022-11-22T21:15:09.966Z,11.20
2022-11-22T21:18:17.653Z,11.47
2022-11-22T21:21:22.916Z,12.47
2022-11-22T21:24:13.586Z,12.80
2022-11-22T21:27:01.609Z,12.97
2022-11-22T21:29:49.018Z,14.20
2022-11-22T21:32:34.520Z,13.80
2022-11-22T21:35:19.917Z,13.40
2022-11-22T21:38:05.479Z,11.97
2022-11-22T21:41:24.300Z,11.83
2022-11-22T21:44:10.970Z,11.57
2022-11-22T21:46:58.692Z,13.53
2022-11-22T21:49:44.158Z,12.73
2022-11-22T21:52:31.512Z,13.00
2022-11-22T21:55:19.301Z,11.87
2022-11-22T21:58:07.720Z,11.50
2022-11-22T22:01:01.276Z,12.40
2022-11-22T22:03:47.001Z,12.73
2022-11-22T22:06:32.584Z,12.00
2022-11-22T22:09:18.315Z,12.87
2022-11-22T22:12:04.287Z,12.80
2022-11-22T22:14:49.546Z,12.73
2022-11-22T22:17:35.819Z,12.70
2022-11-22T22:20:24.793Z,14.33
2022-11-22T22:23:15.095Z,13.10
2022-11-22T22:26:02.430Z,13.83
2022-11-22T22:28:49.487Z,13.83
2022-11-22T22:31:37.103Z,14.67
2022-11-22T22:34:22.377Z,13.63
2022-11-22T22:37:07.968Z,14.20
2022-11-22T22:39:53.667Z,13.60
2022-11-22T22:42:41.236Z,14.03
2022-11-22T22:45:29.246Z,11.47
2022-11-22T22:48:14.608Z,13.40
2022-11-22T22:51:21.613Z,13.83
2022-11-22T22:54:09.572Z,13.50
2022-11-22T22:56:55.595Z,10.77
2022-11-22T22:59:42.230Z,14.10
2022-11-22T23:02:30.235Z,12.83
2022-11-22T23:05:15.925Z,14.50
2022-11-22T23:08:02.165Z,13.53
2022-11-22T23:10:47.606Z,14.60
2022-11-22T23:13:36.772Z,13.50
2022-11-22T23:16:22.464Z,14.77
2022-11-22T23:19:08.215Z,12.33
2022-11-22T23:21:59.127Z,13.53
2022-11-22T23:24:46.454Z,14.27
2022-11-22T23:27:34.164Z,14.67
2022-11-22T23:30:20.517Z,13.77
2022-11-22T23:33:09.016Z,15.10
2022-11-22T23:35:54.345Z,14.53
2022-11-22T23:38:40.224Z,13.67
2022-11-22T23:41:26.248Z,13.10
2022-11-22T23:44:14.468Z,13.53
2022-11-22T23:46:59.735Z,14.13
2022-11-22T23:49:46.128Z,14.43
2022-11-22T23:52:32.173Z,13.70
2022-11-22T23:55:18.087Z,13.83
2022-11-22T23:58:05.852Z,15.30
